createdAt,value
2023-01-11T00:01:39.214Z,6.84
2023-01-11T00:04:30.499Z,6.85
2023-01-11T00:07:17.458Z,6.87
2023-01-11T00:10:04.937Z,6.86
2023-01-11T00:12:51.397Z,6.95
2023-01-11T00:15:38.535Z,6.91
2023-01-11T00:18:24.959Z,6.87
2023-01-11T00:21:11.298Z,7.01
2023-01-11T00:23:57.896Z,7.01
2023-01-11T00:26:44.577Z,7.01
2023-01-11T00:29:30.970Z,6.98
2023-01-11T00:32:17.318Z,6.89
2023-01-11T00:35:04.162Z,6.97
2023-01-11T00:37:51.912Z,6.87
2023-01-11T00:40:38.512Z,6.99
2023-01-11T00:43:43.357Z,6.94
2023-01-11T00:46:48.576Z,7.00
2023-01-11T00:49:35.403Z,6.96
2023-01-11T00:52:22.507Z,6.97
2023-01-11T00:55:09.932Z,7.07
2023-01-11T00:57:56.201Z,7.07
2023-01-11T01:00:43.038Z,7.03
2023-01-11T01:03:29.386Z,7.00
2023-01-11T01:06:15.859Z,6.99
2023-01-11T01:09:02.435Z,7.05
2023-01-11T01:11:48.962Z,7.06
2023-01-11T01:14:36.305Z,7.02
2023-01-11T01:17:22.964Z,7.06
2023-01-11T01:20:10.242Z,6.98
2023-01-11T01:22:56.640Z,7.00
2023-01-11T01:25:43.114Z,7.02
2023-01-11T01:28:29.786Z,6.99
2023-01-11T01:31:17.341Z,7.07
2023-01-11T01:34:03.692Z,6.92
2023-01-11T01:36:50.226Z,6.94
2023-01-11T01:39:36.978Z,6.95
2023-01-11T01:42:24.203Z,6.84
2023-01-11T01:45:27.633Z,6.73
2023-01-11T01:48:18.691Z,6.62
2023-01-11T01:51:07.051Z,6.79
2023-01-11T01:53:57.504Z,6.63
2023-01-11T01:56:52.136Z,6.70
2023-01-11T01:59:38.663Z,6.71
2023-01-11T02:02:26.435Z,6.63
2023-01-11T02:05:15.484Z,6.72
2023-01-11T02:08:08.304Z,6.76
2023-01-11T02:10:55.784Z,6.77
2023-01-11T02:13:46.196Z,6.86
2023-01-11T02:16:33.321Z,6.90
2023-01-11T02:19:40.716Z,6.94
2023-01-11T02:22:49.285Z,6.91
2023-01-11T02:26:00.492Z,7.00
2023-01-11T02:29:10.607Z,7.05
2023-01-11T02:32:13.837Z,7.05
2023-01-11T02:35:11.470Z,7.12
2023-01-11T02:38:05.340Z,7.08
2023-01-11T02:40:59.108Z,7.10
2023-01-11T02:44:20.708Z,7.15
2023-01-11T02:47:17.790Z,7.18
2023-01-11T02:50:29.745Z,7.21
2023-01-11T02:53:57.221Z,7.26
2023-01-11T02:56:47.357Z,7.28
2023-01-11T02:59:35.459Z,7.25
2023-01-11T03:02:21.969Z,7.23
2023-01-11T03:05:15.451Z,7.26
2023-01-11T03:08:24.421Z,7.24
2023-01-11T03:11:37.502Z,7.35
2023-01-11T03:14:30.112Z,7.38
2023-01-11T03:17:41.399Z,7.35
2023-01-11T03:20:33.233Z,7.34
2023-01-11T03:23:31.678Z,7.40
2023-01-11T03:26:29.326Z,7.33
2023-01-11T03:29:27.297Z,7.37
2023-01-11T03:32:21.045Z,7.30
2023-01-11T03:35:30.457Z,7.29
2023-01-11T03:38:26.625Z,7.35
2023-01-11T03:41:22.355Z,7.24
2023-01-11T03:44:12.898Z,7.30
2023-01-11T03:47:04.820Z,7.33
2023-01-11T03:49:56.209Z,7.36
2023-01-11T03:52:44.473Z,7.45
2023-01-11T03:55:37.712Z,7.41
2023-01-11T03:58:26.957Z,7.38
2023-01-11T04:01:13.648Z,7.34
2023-01-11T04:04:00.274Z,7.38
2023-01-11T04:06:46.800Z,7.42
2023-01-11T04:09:33.280Z,7.49
2023-01-11T04:12:19.925Z,7.51
2023-01-11T04:15:06.873Z,7.48
2023-01-11T04:17:53.310Z,7.45
2023-01-11T04:20:41.086Z,7.44
2023-01-11T04:23:27.463Z,7.55
2023-01-11T04:26:14.181Z,7.64
2023-01-11T04:29:00.460Z,7.68
2023-01-11T04:31:47.042Z,7.68
2023-01-11T04:34:33.653Z,7.62
2023-01-11T04:37:20.359Z,7.65
2023-01-11T04:40:07.712Z,7.65
2023-01-11T04:42:54.002Z,7.64
2023-01-11T04:45:40.304Z,7.58
2023-01-11T04:48:27.019Z,7.56
2023-01-11T04:51:13.279Z,7.67
2023-01-11T04:54:00.094Z,7.70
2023-01-11T04:56:46.604Z,7.69
2023-01-11T04:59:33.400Z,7.75
2023-01-11T05:02:19.860Z,7.60
2023-01-11T05:05:07.909Z,7.70
2023-01-11T05:07:55.714Z,7.62
2023-01-11T05:10:42.198Z,7.71
2023-01-11T05:13:45.080Z,7.73
2023-01-11T05:16:31.886Z,7.50
2023-01-11T05:19:18.678Z,7.29
2023-01-11T05:22:05.302Z,7.30
2023-01-11T05:24:51.559Z,7.11
2023-01-11T05:27:38.178Z,6.85
2023-01-11T05:30:24.572Z,6.68
2023-01-11T05:33:11.119Z,6.70
2023-01-11T05:36:05.249Z,6.69
2023-01-11T05:38:53.600Z,6.50
2023-01-11T05:41:40.170Z,6.45
2023-01-11T05:44:45.009Z,6.43
2023-01-11T05:47:31.506Z,6.32
2023-01-11T05:50:18.117Z,6.48
2023-01-11T05:53:07.066Z,6.28
2023-01-11T05:55:55.185Z,6.28
2023-01-11T05:58:41.731Z,6.32
2023-01-11T06:01:28.141Z,6.35
2023-01-11T06:04:14.648Z,6.41
2023-01-11T06:07:01.291Z,6.36
2023-01-11T06:09:47.929Z,6.37
2023-01-11T06:12:34.731Z,6.20
2023-01-11T06:15:23.976Z,6.17
2023-01-11T06:18:10.203Z,6.27
2023-01-11T06:20:57.775Z,6.40
2023-01-11T06:23:47.089Z,6.37
2023-01-11T06:26:33.737Z,6.36
2023-01-11T06:29:20.399Z,6.56
2023-01-11T06:32:08.715Z,6.70
2023-01-11T06:34:55.286Z,6.60
2023-01-11T06:37:42.102Z,6.83
2023-01-11T06:40:29.090Z,6.81
2023-01-11T06:43:15.752Z,6.88
2023-01-11T06:46:02.591Z,6.73
2023-01-11T06:48:49.413Z,6.72
2023-01-11T06:51:36.075Z,6.92
2023-01-11T06:54:25.582Z,6.99
2023-01-11T06:57:12.668Z,7.09
2023-01-11T06:59:59.847Z,7.21
2023-01-11T07:02:46.767Z,7.34
2023-01-11T07:05:35.340Z,7.42
2023-01-11T07:08:21.697Z,7.55
2023-01-11T07:11:08.775Z,7.53
2023-01-11T07:13:55.163Z,7.57
2023-01-11T07:16:41.478Z,7.64
2023-01-11T07:19:28.093Z,7.72
2023-01-11T07:22:16.043Z,7.81
2023-01-11T07:25:04.481Z,7.95
2023-01-11T07:27:59.061Z,7.92
2023-01-11T07:30:57.531Z,7.91
2023-01-11T07:33:44.835Z,8.02
2023-01-11T07:36:31.368Z,8.03
2023-01-11T07:39:18.172Z,8.04
2023-01-11T07:42:23.783Z,7.98
2023-01-11T07:45:11.630Z,8.04
2023-01-11T07:47:57.977Z,8.19
2023-01-11T07:50:45.408Z,8.20
2023-01-11T07:53:32.233Z,8.44
2023-01-11T07:56:18.673Z,8.43
2023-01-11T07:59:05.384Z,8.53
2023-01-11T08:01:52.109Z,8.59
2023-01-11T08:04:38.784Z,8.68
2023-01-11T08:07:25.361Z,8.78
2023-01-11T08:10:11.845Z,8.84
2023-01-11T08:13:16.980Z,8.88
2023-01-11T08:16:03.847Z,8.91
2023-01-11T08:19:01.694Z,8.92
2023-01-11T08:21:49.599Z,8.99
2023-01-11T08:24:36.445Z,9.00
2023-01-11T08:27:23.238Z,9.06
2023-01-11T08:30:11.006Z,9.06
2023-01-11T08:32:57.725Z,8.92
2023-01-11T08:35:44.415Z,9.12
2023-01-11T08:38:30.773Z,9.08
2023-01-11T08:41:17.499Z,9.20
2023-01-11T08:44:04.091Z,9.18
2023-01-11T08:46:52.553Z,9.19
2023-01-11T08:49:42.982Z,9.22
2023-01-11T08:52:29.668Z,9.22
2023-01-11T08:55:22.048Z,9.25
2023-01-11T08:58:08.813Z,9.29
2023-01-11T09:00:57.909Z,9.46
2023-01-11T09:03:44.228Z,9.41
2023-01-11T09:06:30.836Z,9.50
2023-01-11T09:09:17.593Z,9.42
2023-01-11T09:12:05.842Z,9.51
2023-01-11T09:14:52.715Z,9.50
2023-01-11T09:17:39.141Z,9.61
2023-01-11T09:20:25.682Z,9.66
2023-01-11T09:23:12.343Z,9.55
2023-01-11T09:25:59.032Z,9.65
2023-01-11T09:28:46.010Z,9.60
2023-01-11T09:31:32.890Z,9.58
2023-01-11T09:34:21.003Z,9.57
2023-01-11T09:37:07.430Z,9.60
2023-01-11T09:39:53.803Z,9.59
2023-01-11T09:42:43.062Z,9.59
2023-01-11T09:45:33.948Z,9.65
2023-01-11T09:48:37.853Z,9.74
2023-01-11T09:51:33.231Z,9.77
2023-01-11T09:54:27.269Z,9.76
2023-01-11T09:57:38.962Z,9.71
2023-01-11T10:00:48.515Z,9.77
2023-01-11T10:03:34.805Z,9.88
2023-01-11T10:06:52.366Z,9.91
2023-01-11T10:18:37.597Z,10.00
2023-01-11T10:20:35.462Z,10.02
2023-01-11T10:23:42.116Z,9.99
2023-01-11T10:26:37.197Z,10.00
2023-01-11T10:29:50.693Z,9.97
2023-01-11T10:32:54.031Z,10.00
2023-01-11T10:36:15.954Z,9.89
2023-01-11T10:39:55.363Z,9.93
2023-01-11T10:43:12.963Z,9.99
2023-01-11T10:49:09.581Z,10.09
2023-01-11T10:52:03.810Z,10.04
2023-01-11T10:54:54.858Z,10.07
2023-01-11T10:57:59.433Z,10.04
2023-01-11T11:01:13.252Z,10.09
2023-01-11T11:04:18.475Z,10.14
2023-01-11T11:07:34.878Z,10.26
2023-01-11T11:10:52.862Z,10.29
2023-01-11T11:13:39.930Z,10.36
2023-01-11T11:16:52.938Z,10.34
2023-01-11T11:19:41.147Z,10.43
2023-01-11T11:22:28.607Z,10.52
2023-01-11T11:25:29.893Z,10.63
2023-01-11T11:28:22.406Z,10.69
2023-01-11T11:31:11.253Z,10.72
2023-01-11T11:34:07.018Z,10.68
2023-01-11T11:36:55.455Z,10.71
2023-01-11T11:39:42.297Z,10.74
2023-01-11T11:42:29.016Z,10.73
2023-01-11T11:45:22.764Z,10.71
2023-01-11T11:48:10.713Z,10.72
2023-01-11T11:51:00.748Z,10.77
2023-01-11T11:53:56.272Z,10.64
2023-01-11T11:56:42.740Z,10.69
2023-01-11T11:59:32.748Z,10.56
2023-01-11T12:02:25.511Z,10.58
2023-01-11T12:05:12.233Z,10.55
2023-01-11T12:07:59.876Z,10.50
2023-01-11T12:10:51.321Z,10.58
2023-01-11T12:13:39.852Z,10.55
2023-01-11T12:16:31.124Z,10.46
2023-01-11T12:19:34.382Z,10.52
2023-01-11T12:22:24.031Z,10.52
2023-01-11T12:25:15.131Z,10.48
2023-01-11T12:28:14.049Z,10.46
2023-01-11T12:31:19.125Z,10.43
2023-01-11T12:34:39.171Z,10.50
2023-01-11T12:37:34.458Z,10.52
2023-01-11T12:40:34.464Z,10.45
2023-01-11T12:43:21.163Z,10.38
2023-01-11T12:46:22.993Z,10.32
2023-01-11T12:49:38.904Z,10.26
2023-01-11T12:52:31.601Z,10.28
2023-01-11T12:55:34.989Z,10.28
2023-01-11T12:58:38.940Z,10.27
2023-01-11T13:02:01.087Z,10.30
2023-01-11T13:04:58.390Z,10.31
2023-01-11T13:08:04.113Z,10.19
2023-01-11T13:11:10.578Z,10.20
2023-01-11T13:14:06.439Z,10.26
2023-01-11T13:17:01.751Z,10.24
2023-01-11T13:20:16.972Z,10.25
2023-01-11T13:23:12.049Z,10.21
2023-01-11T13:26:07.225Z,10.12
2023-01-11T13:29:11.515Z,9.99
2023-01-11T13:32:03.442Z,9.83
2023-01-11T13:34:53.009Z,9.75
2023-01-11T13:38:01.446Z,9.63
2023-01-11T13:40:55.160Z,9.42
2023-01-11T13:43:55.527Z,9.58
2023-01-11T13:47:11.611Z,9.57
2023-01-11T13:50:19.877Z,9.49
2023-01-11T13:53:16.048Z,9.32
2023-01-11T13:56:18.225Z,9.35
2023-01-11T13:59:23.031Z,9.32
2023-01-11T14:02:28.306Z,9.37
2023-01-11T14:05:24.141Z,9.43
2023-01-11T14:08:40.650Z,9.48
2023-01-11T14:11:47.954Z,9.54
2023-01-11T14:14:41.127Z,9.51
2023-01-11T14:17:48.730Z,9.46
2023-01-11T14:20:51.575Z,9.69
2023-01-11T14:23:56.780Z,9.79
2023-01-11T14:27:06.438Z,9.80
2023-01-11T14:30:34.243Z,9.72
2023-01-11T14:33:30.845Z,9.62
2023-01-11T14:36:32.005Z,9.60
2023-01-11T14:39:18.453Z,9.56
2023-01-11T14:42:32.099Z,9.51
2023-01-11T14:45:23.797Z,9.47
2023-01-11T14:48:42.558Z,9.44
2023-01-11T14:51:46.262Z,9.36
2023-01-11T14:54:40.593Z,9.38
2023-01-11T14:57:54.959Z,9.35
2023-01-11T15:00:44.262Z,9.36
2023-01-11T15:03:37.110Z,9.30
2023-01-11T15:06:24.238Z,9.22
2023-01-11T15:09:47.292Z,9.20
2023-01-11T15:12:39.673Z,9.11
2023-01-11T15:15:52.023Z,9.16
2023-01-11T15:18:45.859Z,9.15
2023-01-11T15:21:41.529Z,9.05
2023-01-11T15:24:31.759Z,8.94
2023-01-11T15:27:27.714Z,8.86
2023-01-11T15:30:29.901Z,8.82
2023-01-11T15:33:19.592Z,8.73
2023-01-11T15:36:11.379Z,8.71
2023-01-11T15:39:05.517Z,8.65
2023-01-11T15:42:18.143Z,8.61
2023-01-11T15:45:24.718Z,8.60
2023-01-11T15:48:26.605Z,8.51
2023-01-11T15:51:44.872Z,8.56
2023-01-11T15:54:56.395Z,8.53
2023-01-11T15:58:21.072Z,8.49
2023-01-11T16:01:22.345Z,8.37
2023-01-11T16:04:56.391Z,8.48
2023-01-11T16:08:10.761Z,8.45
2023-01-11T16:11:08.580Z,8.44
2023-01-11T16:14:26.857Z,8.38
2023-01-11T16:17:18.615Z,8.43
2023-01-11T16:20:20.571Z,8.38
2023-01-11T16:23:07.627Z,8.43
2023-01-11T16:25:58.935Z,8.39
2023-01-11T16:28:56.084Z,8.38
2023-01-11T16:32:04.771Z,8.36
2023-01-11T16:34:53.596Z,8.33
2023-01-11T16:37:45.868Z,8.31
2023-01-11T16:40:35.919Z,8.26
2023-01-11T16:43:33.415Z,8.25
2023-01-11T16:46:42.736Z,8.16
2023-01-11T16:49:28.990Z,8.18
2023-01-11T16:52:37.781Z,8.14
2023-01-11T16:55:50.663Z,8.16
2023-01-11T16:58:38.809Z,8.16
2023-01-11T17:01:25.383Z,8.27
2023-01-11T17:04:28.132Z,8.24
2023-01-11T17:07:20.874Z,8.40
2023-01-11T17:10:22.611Z,8.42
2023-01-11T17:13:44.443Z,8.50
2023-01-11T17:21:26.791Z,7.87
2023-01-11T17:24:13.966Z,7.60
2023-01-11T17:27:02.598Z,7.36
2023-01-11T17:29:51.939Z,7.22
2023-01-11T17:32:42.752Z,7.04
2023-01-11T17:35:33.889Z,7.01
2023-01-11T17:38:24.272Z,6.87
2023-01-11T17:41:31.569Z,6.83
2023-01-11T17:44:41.669Z,6.83
2023-01-11T17:47:29.831Z,6.85
2023-01-11T17:50:25.187Z,6.87
2023-01-11T17:53:21.189Z,6.87
2023-01-11T17:56:38.332Z,6.88
2023-01-11T17:59:27.094Z,6.85
2023-01-11T18:02:14.829Z,6.77
2023-01-11T18:05:01.944Z,6.70
2023-01-11T18:07:53.604Z,6.66
2023-01-11T18:10:40.759Z,6.60
2023-01-11T18:13:34.760Z,6.47
2023-01-11T18:16:22.626Z,6.40
2023-01-11T18:19:38.953Z,6.36
2023-01-11T18:22:32.480Z,6.29
2023-01-11T18:25:25.657Z,6.21
2023-01-11T18:28:12.235Z,6.14
2023-01-11T18:31:01.885Z,6.13
2023-01-11T18:33:48.507Z,6.09
2023-01-11T18:36:34.798Z,6.04
2023-01-11T18:39:21.126Z,5.97
2023-01-11T18:42:08.582Z,5.89
2023-01-11T18:44:55.336Z,5.91
2023-01-11T18:47:43.826Z,5.88
2023-01-11T18:50:30.061Z,5.95
2023-01-11T18:53:17.569Z,6.01
2023-01-11T18:56:04.473Z,6.06
2023-01-11T18:58:51.472Z,6.06
2023-01-11T19:01:52.810Z,5.96
2023-01-11T19:04:45.651Z,6.03
2023-01-11T19:07:32.042Z,5.97
2023-01-11T19:10:21.496Z,5.91
2023-01-11T19:13:07.688Z,5.68
2023-01-11T19:15:53.992Z,5.88
2023-01-11T19:18:40.461Z,5.73
2023-01-11T19:21:26.680Z,5.96
2023-01-11T19:24:13.041Z,5.74
2023-01-11T19:27:00.496Z,5.90
2023-01-11T19:29:47.608Z,5.94
2023-01-11T19:32:35.164Z,6.04
2023-01-11T19:35:23.997Z,6.12
2023-01-11T19:38:11.448Z,6.28
2023-01-11T19:41:05.380Z,6.20
2023-01-11T19:43:51.943Z,6.10
2023-01-11T19:46:38.379Z,6.13
2023-01-11T19:49:25.197Z,6.22
2023-01-11T19:52:14.226Z,6.22
2023-01-11T19:55:00.958Z,6.34
2023-01-11T19:57:47.548Z,6.30
2023-01-11T20:00:35.269Z,6.36
2023-01-11T20:03:22.365Z,6.33
2023-01-11T20:06:09.434Z,6.33
2023-01-11T20:08:55.996Z,6.32
2023-01-11T20:11:42.454Z,6.32
2023-01-11T20:14:29.117Z,6.24
2023-01-11T20:17:20.923Z,6.17
2023-01-11T20:20:07.995Z,6.00
2023-01-11T20:22:54.665Z,5.95
2023-01-11T20:25:41.388Z,5.91
2023-01-11T20:28:30.708Z,5.98
2023-01-11T20:31:18.717Z,5.83
2023-01-11T20:34:10.525Z,5.97
2023-01-11T20:36:57.378Z,5.97
2023-01-11T20:39:43.814Z,5.95
2023-01-11T20:42:31.346Z,6.12
2023-01-11T20:45:21.500Z,6.19
2023-01-11T20:48:08.145Z,6.17
2023-01-11T20:50:54.878Z,6.26
2023-01-11T20:53:41.617Z,6.30
2023-01-11T20:56:28.263Z,6.18
2023-01-11T20:59:19.137Z,6.26
2023-01-11T21:02:07.899Z,6.36
2023-01-11T21:04:55.450Z,6.23
2023-01-11T21:07:43.516Z,6.29
2023-01-11T21:10:30.321Z,6.16
2023-01-11T21:13:16.930Z,6.18
2023-01-11T21:16:13.218Z,6.16
2023-01-11T21:19:04.193Z,6.24
2023-01-11T21:21:51.339Z,6.19
2023-01-11T21:24:41.285Z,6.28
2023-01-11T21:27:28.479Z,6.27
2023-01-11T21:30:16.733Z,6.25
2023-01-11T21:33:03.472Z,6.22
2023-01-11T21:35:50.182Z,6.07
2023-01-11T21:38:37.166Z,6.05
2023-01-11T21:41:48.122Z,6.04
2023-01-11T21:44:34.662Z,5.92
2023-01-11T21:47:22.188Z,5.92
2023-01-11T21:50:09.363Z,5.89
2023-01-11T21:52:55.733Z,5.87
2023-01-11T21:55:42.243Z,5.80
2023-01-11T21:58:28.647Z,5.81
2023-01-11T22:01:15.766Z,5.94
2023-01-11T22:04:10.643Z,5.98
2023-01-11T22:06:58.675Z,6.01
2023-01-11T22:10:03.449Z,6.00
2023-01-11T22:12:50.870Z,6.00
2023-01-11T22:15:37.449Z,6.04
2023-01-11T22:18:23.730Z,6.09
2023-01-11T22:21:18.523Z,6.14
2023-01-11T22:24:06.322Z,6.09
2023-01-11T22:26:53.971Z,5.99
2023-01-11T22:29:43.167Z,6.02
2023-01-11T22:32:31.382Z,5.99
2023-01-11T22:35:22.623Z,6.09
2023-01-11T22:38:09.103Z,6.11
2023-01-11T22:40:59.917Z,6.25
2023-01-11T22:43:46.608Z,6.10
2023-01-11T22:46:32.931Z,6.09
2023-01-11T22:49:19.684Z,6.07
2023-01-11T22:52:06.687Z,6.08
2023-01-11T22:54:53.439Z,6.07
2023-01-11T22:57:40.140Z,6.13
2023-01-11T23:00:26.731Z,6.15
2023-01-11T23:03:14.795Z,6.12
2023-01-11T23:06:01.468Z,6.21
2023-01-11T23:08:47.853Z,6.19
2023-01-11T23:11:56.635Z,6.10
2023-01-11T23:14:42.964Z,6.09
2023-01-11T23:17:29.402Z,5.99
2023-01-11T23:20:16.423Z,5.92
2023-01-11T23:23:02.744Z,5.94
2023-01-11T23:25:54.329Z,5.87
2023-01-11T23:28:40.689Z,5.87
2023-01-11T23:31:29.413Z,5.80
2023-01-11T23:34:16.214Z,5.72
2023-01-11T23:37:02.803Z,5.73
2023-01-11T23:39:49.063Z,5.66
2023-01-11T23:42:37.088Z,5.53
2023-01-11T23:45:23.350Z,5.40
2023-01-11T23:48:09.714Z,5.64
2023-01-11T23:51:03.625Z,5.75
2023-01-11T23:53:50.329Z,5.80
2023-01-11T23:56:37.176Z,5.71
2023-01-11T23:59:24.081Z,5.69
